createdAt,value
2022-11-09T00:01:04.319Z,99665.75
2022-11-09T00:03:33.688Z,99666.91
2022-11-09T00:06:03.010Z,99670.88
2022-11-09T00:08:31.060Z,99668.94
2022-11-09T00:11:04.290Z,99675.38
2022-11-09T00:13:36.362Z,99671.22
2022-11-09T00:16:05.738Z,99670.31
2022-11-09T00:18:35.790Z,99677.91
2022-11-09T00:21:07.344Z,99680.59
2022-11-09T00:23:37.217Z,99677.53
2022-11-09T00:26:07.658Z,99674.69
2022-11-09T00:28:37.319Z,99677.97
2022-11-09T00:31:07.551Z,99673.88
2022-11-09T00:33:38.394Z,99678.59
2022-11-09T00:36:08.536Z,99675.78
2022-11-09T00:38:40.344Z,99680.38
2022-11-09T00:41:10.771Z,99678.22
2022-11-09T00:43:41.169Z,99675.00
2022-11-09T00:46:10.229Z,99677.13
2022-11-09T00:48:41.049Z,99669.13
2022-11-09T00:51:10.686Z,99677.97
2022-11-09T00:53:40.372Z,99671.38
2022-11-09T00:56:11.387Z,99680.13
2022-11-09T00:58:41.621Z,99672.97
2022-11-09T01:01:13.118Z,99666.22
2022-11-09T01:03:46.510Z,99667.97
2022-11-09T01:06:16.832Z,99661.81
2022-11-09T01:08:45.405Z,99667.28
2022-11-09T01:11:17.233Z,99663.28
2022-11-09T01:13:46.882Z,99673.38
2022-11-09T01:16:16.521Z,99667.03
2022-11-09T01:18:47.454Z,99672.47
2022-11-09T01:21:18.074Z,99671.75
2022-11-09T01:23:47.519Z,99671.59
2022-11-09T01:26:16.975Z,99671.09
2022-11-09T01:28:46.411Z,99661.72
2022-11-09T01:31:16.507Z,99656.22
2022-11-09T01:33:47.596Z,99661.31
2022-11-09T01:36:18.476Z,99667.31
2022-11-09T01:38:46.606Z,99653.63
2022-11-09T01:41:17.351Z,99651.72
2022-11-09T01:43:46.998Z,99654.72
2022-11-09T01:46:19.897Z,99652.34
2022-11-09T01:48:53.721Z,99648.50
2022-11-09T01:51:26.423Z,99659.72
2022-11-09T01:54:05.530Z,99655.28
2022-11-09T01:56:34.504Z,99652.25
2022-11-09T01:59:05.398Z,99654.13
2022-11-09T02:01:35.958Z,99654.13
2022-11-09T02:04:15.091Z,99646.66
2022-11-09T02:06:43.341Z,99646.00
2022-11-09T02:09:14.787Z,99646.41
2022-11-09T02:11:43.171Z,99648.38
2022-11-09T02:14:13.112Z,99644.75
2022-11-09T02:16:43.106Z,99639.94
2022-11-09T02:19:14.036Z,99635.47
2022-11-09T02:21:43.741Z,99637.72
2022-11-09T02:24:13.781Z,99645.47
2022-11-09T02:26:45.368Z,99639.41
2022-11-09T02:29:16.661Z,99644.53
2022-11-09T02:31:47.602Z,99647.78
2022-11-09T02:34:18.822Z,99656.88
2022-11-09T02:36:49.874Z,99653.97
2022-11-09T02:39:24.863Z,99664.03
2022-11-09T02:42:09.048Z,99658.47
2022-11-09T02:44:42.523Z,99654.38
2022-11-09T02:47:11.227Z,99656.38
2022-11-09T02:49:40.391Z,99641.41
2022-11-09T02:52:11.595Z,99644.00
2022-11-09T02:54:41.392Z,99632.16
2022-11-09T02:57:10.495Z,99633.16
2022-11-09T02:59:40.877Z,99649.69
2022-11-09T03:02:10.191Z,99645.63
2022-11-09T03:04:39.924Z,99638.16
2022-11-09T03:07:09.431Z,99646.41
2022-11-09T03:09:40.615Z,99645.16
2022-11-09T03:12:23.255Z,99645.22
2022-11-09T03:14:54.553Z,99638.22
2022-11-09T03:17:23.338Z,99646.22
2022-11-09T03:19:52.639Z,99638.81
2022-11-09T03:22:21.654Z,99640.09
2022-11-09T03:24:52.574Z,99637.09
2022-11-09T03:27:22.252Z,99649.63
2022-11-09T03:29:51.934Z,99654.94
2022-11-09T03:32:22.652Z,99652.09
2022-11-09T03:34:51.656Z,99641.88
2022-11-09T03:37:22.173Z,99643.28
2022-11-09T03:39:52.653Z,99642.75
2022-11-09T03:42:22.197Z,99646.19
2022-11-09T03:44:51.037Z,99647.34
2022-11-09T03:47:20.459Z,99651.00
2022-11-09T03:49:49.990Z,99650.53
2022-11-09T03:52:18.266Z,99654.47
2022-11-09T03:54:47.764Z,99653.09
2022-11-09T03:57:17.638Z,99657.88
2022-11-09T03:59:45.911Z,99651.16
2022-11-09T04:02:14.223Z,99651.56
2022-11-09T04:04:43.631Z,99650.88
2022-11-09T04:07:12.710Z,99655.88
2022-11-09T04:09:42.263Z,99650.16
2022-11-09T04:12:10.319Z,99644.16
2022-11-09T04:14:40.910Z,99647.97
2022-11-09T04:17:09.368Z,99648.09
2022-11-09T04:19:38.923Z,99641.22
2022-11-09T04:22:07.374Z,99628.19
2022-11-09T04:24:36.893Z,99631.03
2022-11-09T04:27:05.506Z,99634.91
2022-11-09T04:29:34.929Z,99630.97
2022-11-09T04:32:07.019Z,99630.59
2022-11-09T04:34:36.073Z,99618.84
2022-11-09T04:37:04.331Z,99623.13
2022-11-09T04:39:34.897Z,99618.97
2022-11-09T04:42:03.126Z,99614.09
2022-11-09T04:44:32.340Z,99611.84
2022-11-09T04:47:07.228Z,99612.94
2022-11-09T04:49:36.622Z,99620.38
2022-11-09T04:52:05.646Z,99617.53
2022-11-09T04:54:34.050Z,99607.75
2022-11-09T04:57:02.223Z,99612.06
2022-11-09T04:59:30.314Z,99619.69
2022-11-09T05:02:00.479Z,99619.38
2022-11-09T05:04:30.734Z,99619.13
2022-11-09T05:07:00.906Z,99620.25
2022-11-09T05:09:28.944Z,99609.59
2022-11-09T05:12:01.477Z,99617.44
2022-11-09T05:14:30.344Z,99612.25
2022-11-09T05:17:00.422Z,99607.31
2022-11-09T05:19:31.024Z,99600.59
2022-11-09T05:22:22.662Z,99618.97
2022-11-09T05:24:51.899Z,99623.31
2022-11-09T05:27:21.344Z,99625.84
2022-11-09T05:29:49.391Z,99614.19
2022-11-09T05:32:18.585Z,99622.31
2022-11-09T05:34:47.442Z,99629.03
2022-11-09T05:37:20.324Z,99625.72
2022-11-09T05:39:48.655Z,99630.72
2022-11-09T05:42:18.196Z,99638.09
2022-11-09T05:44:46.384Z,99635.78
2022-11-09T05:47:15.626Z,99634.81
2022-11-09T05:49:44.373Z,99639.03
2022-11-09T05:52:16.005Z,99635.78
2022-11-09T05:54:45.924Z,99627.66
2022-11-09T05:57:15.781Z,99636.31
2022-11-09T05:59:44.717Z,99638.19
2022-11-09T06:02:14.434Z,99639.16
2022-11-09T06:04:43.431Z,99642.59
2022-11-09T06:07:21.749Z,99636.97
2022-11-09T06:09:52.848Z,99642.25
2022-11-09T06:12:21.134Z,99635.09
2022-11-09T06:14:49.619Z,99656.34
2022-11-09T06:17:18.874Z,99658.16
2022-11-09T06:19:47.655Z,99655.88
2022-11-09T06:22:18.084Z,99657.69
2022-11-09T06:24:46.561Z,99652.28
2022-11-09T06:27:17.579Z,99652.81
2022-11-09T06:29:46.826Z,99648.19
2022-11-09T06:32:16.083Z,99644.09
2022-11-09T06:34:44.474Z,99642.50
2022-11-09T06:37:13.837Z,99641.50
2022-11-09T06:39:42.449Z,99650.50
2022-11-09T06:42:11.582Z,99647.97
2022-11-09T06:44:46.503Z,99641.63
2022-11-09T06:47:16.262Z,99655.00
2022-11-09T06:49:44.473Z,99655.38
2022-11-09T06:52:13.766Z,99653.34
2022-11-09T06:54:42.507Z,99646.28
2022-11-09T06:57:12.251Z,99636.38
2022-11-09T06:59:42.906Z,99641.50
2022-11-09T07:02:16.642Z,99643.09
2022-11-09T07:04:45.532Z,99639.56
2022-11-09T07:07:14.865Z,99640.56
2022-11-09T07:09:43.721Z,99639.13
2022-11-09T07:12:13.008Z,99643.91
2022-11-09T07:14:42.915Z,99644.78
2022-11-09T07:17:12.272Z,99636.03
2022-11-09T07:19:40.549Z,99642.03
2022-11-09T07:22:09.977Z,99628.19
2022-11-09T07:24:38.522Z,99640.16
2022-11-09T07:27:08.090Z,99635.72
2022-11-09T07:29:36.538Z,99642.44
2022-11-09T07:32:11.638Z,99642.91
2022-11-09T07:34:40.541Z,99635.91
2022-11-09T07:37:09.694Z,99650.03
2022-11-09T07:39:38.531Z,99637.28
2022-11-09T07:42:08.111Z,99633.44
2022-11-09T07:44:38.590Z,99633.72
2022-11-09T07:47:08.347Z,99643.97
2022-11-09T07:49:36.600Z,99648.88
2022-11-09T07:52:06.082Z,99654.34
2022-11-09T07:54:36.319Z,99655.09
2022-11-09T07:57:05.492Z,99655.44
2022-11-09T07:59:33.613Z,99656.31
2022-11-09T08:02:03.361Z,99656.28
2022-11-09T08:04:33.027Z,99659.16
2022-11-09T08:07:02.334Z,99670.00
2022-11-09T08:09:30.683Z,99670.88
2022-11-09T08:12:04.802Z,99680.53
2022-11-09T08:14:34.176Z,99676.75
2022-11-09T08:17:02.217Z,99682.63
2022-11-09T08:19:32.075Z,99676.41
2022-11-09T08:22:04.365Z,99688.44
2022-11-09T08:24:32.474Z,99689.38
2022-11-09T08:27:01.895Z,99680.25
2022-11-09T08:29:30.676Z,99686.13
2022-11-09T08:32:00.696Z,99673.28
2022-11-09T08:34:29.747Z,99667.31
2022-11-09T08:37:05.522Z,99660.59
2022-11-09T08:39:33.723Z,99661.88
2022-11-09T08:42:04.967Z,99655.69
2022-11-09T08:44:33.667Z,99667.81
2022-11-09T08:47:03.194Z,99668.31
2022-11-09T08:49:32.496Z,99659.53
2022-11-09T08:52:03.177Z,99650.41
2022-11-09T08:54:33.987Z,99659.34
2022-11-09T08:57:04.414Z,99646.22
2022-11-09T08:59:32.856Z,99655.16
2022-11-09T09:02:04.698Z,99660.75
2022-11-09T09:04:33.778Z,99662.88
2022-11-09T09:07:08.565Z,99667.81
2022-11-09T09:09:37.881Z,99676.31
2022-11-09T09:12:08.064Z,99673.22
2022-11-09T09:14:37.371Z,99681.81
2022-11-09T09:17:06.823Z,99681.22
2022-11-09T09:19:35.882Z,99682.25
2022-11-09T09:22:07.620Z,99686.03
2022-11-09T09:24:36.786Z,99689.31
2022-11-09T09:27:05.885Z,99695.63
2022-11-09T09:29:34.757Z,99696.13
2022-11-09T09:32:03.183Z,99695.22
2022-11-09T09:34:31.953Z,99693.97
2022-11-09T09:37:03.987Z,99690.31
2022-11-09T09:39:39.108Z,99687.84
2022-11-09T09:42:09.828Z,99694.72
2022-11-09T09:44:41.954Z,99691.94
2022-11-09T09:47:15.824Z,99699.16
2022-11-09T09:49:47.585Z,99692.66
2022-11-09T09:52:22.883Z,99692.16
2022-11-09T09:55:00.438Z,99690.25
2022-11-09T09:57:30.507Z,99688.50
2022-11-09T10:00:05.074Z,99694.72
2022-11-09T10:02:41.023Z,99698.03
2022-11-09T10:05:17.068Z,99698.44
2022-11-09T10:07:49.940Z,99694.31
2022-11-09T10:10:29.988Z,99691.06
2022-11-09T10:13:22.956Z,99697.75
2022-11-09T10:15:55.837Z,99701.13
2022-11-09T10:18:38.364Z,99686.50
2022-11-09T10:21:16.291Z,99694.34
2022-11-09T10:23:57.016Z,99699.16
2022-11-09T10:26:37.306Z,99707.03
2022-11-09T10:29:20.334Z,99708.19
2022-11-09T10:31:50.810Z,99715.06
2022-11-09T10:34:21.418Z,99714.16
2022-11-09T10:37:01.204Z,99708.31
2022-11-09T10:39:41.026Z,99705.91
2022-11-09T10:42:34.079Z,99697.25
2022-11-09T10:45:29.654Z,99698.06
2022-11-09T10:48:34.565Z,99700.91
2022-11-09T10:51:36.592Z,99701.09
2022-11-09T10:54:28.695Z,99698.88
2022-11-09T10:57:19.774Z,99700.50
2022-11-09T11:00:18.622Z,99712.94
2022-11-09T11:03:12.765Z,99702.44
2022-11-09T11:06:03.057Z,99699.44
2022-11-09T11:08:52.067Z,99711.56
2022-11-09T11:11:41.627Z,99711.06
2022-11-09T11:14:33.243Z,99707.66
2022-11-09T11:17:37.698Z,99710.53
2022-11-09T11:20:32.301Z,99704.75
2022-11-09T11:23:22.891Z,99704.09
2022-11-09T11:26:25.034Z,99702.53
2022-11-09T11:29:25.800Z,99709.53
2022-11-09T11:32:16.684Z,99701.84
2022-11-09T11:35:14.405Z,99698.78
2022-11-09T11:38:13.119Z,99691.06
2022-11-09T11:41:31.463Z,99682.50
2022-11-09T11:44:40.778Z,99688.41
2022-11-09T11:47:39.361Z,99691.31
2022-11-09T11:50:41.770Z,99687.53
2022-11-09T11:53:43.723Z,99692.88
2022-11-09T11:56:35.361Z,99694.53
2022-11-09T11:59:39.551Z,99687.22
2022-11-09T12:02:41.978Z,99689.63
2022-11-09T12:05:48.900Z,99687.63
2022-11-09T12:08:46.201Z,99685.81
2022-11-09T12:11:45.813Z,99674.91
2022-11-09T12:14:43.270Z,99681.63
2022-11-09T12:17:39.874Z,99680.50
2022-11-09T12:20:33.661Z,99675.28
2022-11-09T12:23:39.170Z,99678.53
2022-11-09T12:26:40.286Z,99667.06
2022-11-09T12:29:34.017Z,99666.19
2022-11-09T12:32:33.243Z,99662.97
2022-11-09T12:35:26.023Z,99667.25
2022-11-09T12:38:19.546Z,99661.97
2022-11-09T12:41:14.675Z,99667.13
2022-11-09T12:44:07.700Z,99664.81
2022-11-09T12:47:01.377Z,99664.00
2022-11-09T12:49:49.398Z,99668.06
2022-11-09T12:52:39.648Z,99659.63
2022-11-09T12:55:32.132Z,99658.34
2022-11-09T12:58:28.692Z,99669.31
2022-11-09T13:01:47.069Z,99663.56
2022-11-09T13:04:36.228Z,99652.63
2022-11-09T13:07:44.507Z,99651.22
2022-11-09T13:10:34.547Z,99652.47
2022-11-09T13:13:26.022Z,99659.38
2022-11-09T13:16:33.398Z,99659.09
2022-11-09T13:19:52.536Z,99661.59
2022-11-09T13:23:07.740Z,99664.28
2022-11-09T13:25:55.756Z,99661.06
2022-11-09T13:29:18.724Z,99664.75
2022-11-09T13:32:26.732Z,99670.59
2022-11-09T13:35:55.586Z,99665.84
2022-11-09T13:38:42.427Z,99662.88
2022-11-09T13:41:42.891Z,99655.72
2022-11-09T13:44:34.539Z,99672.16
2022-11-09T13:47:33.813Z,99661.50
2022-11-09T13:50:23.605Z,99683.00
2022-11-09T13:53:29.475Z,99680.47
2022-11-09T13:56:27.151Z,99679.34
2022-11-09T13:59:19.563Z,99676.94
2022-11-09T14:02:17.425Z,99677.06
2022-11-09T14:05:24.757Z,99683.94
2022-11-09T14:08:20.722Z,99672.75
2022-11-09T14:11:24.905Z,99688.03
2022-11-09T14:14:35.353Z,99681.72
2022-11-09T14:17:31.469Z,99684.66
2022-11-09T14:20:28.782Z,99684.66
2022-11-09T14:23:27.745Z,99688.59
2022-11-09T14:26:18.829Z,99692.66
2022-11-09T14:29:14.950Z,99690.97
2022-11-09T14:32:03.619Z,99688.75
2022-11-09T14:34:51.166Z,99686.78
2022-11-09T14:37:45.983Z,99683.25
2022-11-09T14:40:34.924Z,99685.06
2022-11-09T14:43:29.319Z,99674.69
2022-11-09T14:46:26.560Z,99672.88
2022-11-09T14:49:15.644Z,99673.16
2022-11-09T14:52:03.685Z,99672.75
2022-11-09T14:54:55.235Z,99672.75
2022-11-09T14:57:43.493Z,99669.53
2022-11-09T15:00:34.202Z,99673.72
2022-11-09T15:03:25.637Z,99669.25
2022-11-09T15:06:15.247Z,99669.66
2022-11-09T15:09:10.160Z,99677.66
2022-11-09T15:12:03.399Z,99671.91
2022-11-09T15:14:54.857Z,99675.28
2022-11-09T15:17:47.103Z,99677.38
2022-11-09T15:20:35.426Z,99676.81
2022-11-09T15:23:26.340Z,99684.53
2022-11-09T15:26:30.171Z,99683.97
2022-11-09T15:29:37.724Z,99690.84
2022-11-09T15:32:26.214Z,99692.53
2022-11-09T15:35:22.823Z,99695.88
2022-11-09T15:38:32.237Z,99699.13
2022-11-09T15:41:21.064Z,99702.22
2022-11-09T15:44:09.276Z,99705.00
2022-11-09T15:47:01.544Z,99704.16
2022-11-09T15:49:49.373Z,99700.38
2022-11-09T15:52:38.632Z,99701.22
2022-11-09T15:55:25.861Z,99713.44
2022-11-09T15:58:24.176Z,99708.66
2022-11-09T16:01:13.257Z,99709.38
2022-11-09T16:04:03.834Z,99710.91
2022-11-09T16:06:53.794Z,99718.66
2022-11-09T16:09:43.913Z,99714.56
2022-11-09T16:12:32.627Z,99718.22
2022-11-09T16:15:19.928Z,99724.41
2022-11-09T16:18:08.066Z,99715.09
2022-11-09T16:20:58.554Z,99722.97
2022-11-09T16:23:48.846Z,99720.75
2022-11-09T16:26:38.154Z,99721.16
2022-11-09T16:29:29.229Z,99717.34
2022-11-09T16:32:17.221Z,99717.53
2022-11-09T16:35:28.868Z,99714.56
2022-11-09T16:38:18.635Z,99715.41
2022-11-09T16:41:15.686Z,99722.41
2022-11-09T16:44:05.085Z,99721.88
2022-11-09T16:46:54.685Z,99717.34
2022-11-09T16:49:47.182Z,99715.97
2022-11-09T16:52:34.715Z,99720.31
2022-11-09T16:55:23.869Z,99717.78
2022-11-09T16:58:11.487Z,99723.81
2022-11-09T17:01:11.427Z,99735.03
2022-11-09T17:04:09.879Z,99741.75
2022-11-09T17:07:15.348Z,99727.16
2022-11-09T17:10:10.050Z,99719.31
2022-11-09T17:13:11.363Z,99717.34
2022-11-09T17:16:06.170Z,99732.47
2022-11-09T17:18:56.668Z,99736.78
2022-11-09T17:21:44.894Z,99735.84
2022-11-09T17:24:35.906Z,99744.72
2022-11-09T17:27:24.892Z,99752.53
2022-11-09T17:30:24.753Z,99746.25
2022-11-09T17:33:13.315Z,99740.91
2022-11-09T17:36:11.652Z,99739.50
2022-11-09T17:39:07.809Z,99741.53
2022-11-09T17:42:05.128Z,99749.31
2022-11-09T17:44:53.973Z,99746.66
2022-11-09T17:47:46.304Z,99753.94
2022-11-09T17:50:35.779Z,99749.00
2022-11-09T17:53:24.093Z,99746.53
2022-11-09T17:56:13.340Z,99749.84
2022-11-09T17:59:06.155Z,99752.00
2022-11-09T18:01:56.783Z,99747.56
2022-11-09T18:04:48.393Z,99750.63
2022-11-09T18:07:36.222Z,99749.13
2022-11-09T18:10:24.320Z,99740.41
2022-11-09T18:13:12.477Z,99739.63
2022-11-09T18:16:12.180Z,99735.41
2022-11-09T18:19:04.938Z,99734.44
2022-11-09T18:21:55.810Z,99740.41
2022-11-09T18:24:47.777Z,99739.34
2022-11-09T18:27:36.349Z,99744.06
2022-11-09T18:30:27.863Z,99745.00
2022-11-09T18:33:16.928Z,99737.63
2022-11-09T18:36:09.590Z,99728.63
2022-11-09T18:39:03.867Z,99727.75
2022-11-09T18:41:54.624Z,99737.00
2022-11-09T18:45:00.372Z,99727.94
2022-11-09T18:47:51.041Z,99735.31
2022-11-09T18:50:40.395Z,99736.72
2022-11-09T18:53:36.009Z,99735.97
2022-11-09T18:56:38.827Z,99740.59
2022-11-09T18:59:27.192Z,99732.59
2022-11-09T19:02:19.718Z,99729.78
2022-11-09T19:05:10.367Z,99737.94
2022-11-09T19:08:02.284Z,99735.53
2022-11-09T19:10:52.338Z,99746.53
2022-11-09T19:13:43.762Z,99746.44
2022-11-09T19:16:32.679Z,99741.66
2022-11-09T19:19:31.656Z,99741.56
2022-11-09T19:22:21.577Z,99739.13
2022-11-09T19:25:12.022Z,99749.53
2022-11-09T19:28:03.055Z,99763.66
2022-11-09T19:31:06.425Z,99760.69
2022-11-09T19:33:55.067Z,99774.00
2022-11-09T19:36:46.484Z,99774.13
2022-11-09T19:39:40.371Z,99768.81
2022-11-09T19:42:31.536Z,99767.06
2022-11-09T19:45:20.649Z,99774.81
2022-11-09T19:48:11.668Z,99773.75
2022-11-09T19:51:04.098Z,99775.59
2022-11-09T19:53:53.396Z,99789.34
2022-11-09T19:56:44.957Z,99796.44
2022-11-09T19:59:35.405Z,99788.16
2022-11-09T20:02:25.923Z,99787.19
2022-11-09T20:05:18.969Z,99797.81
2022-11-09T20:08:07.725Z,99793.41
2022-11-09T20:10:58.605Z,99794.16
2022-11-09T20:13:48.487Z,99783.91
2022-11-09T20:16:37.912Z,99787.16
2022-11-09T20:19:28.381Z,99782.66
2022-11-09T20:22:19.407Z,99788.34
2022-11-09T20:25:10.703Z,99787.72
2022-11-09T20:28:04.106Z,99792.28
2022-11-09T20:31:00.266Z,99794.81
2022-11-09T20:33:53.196Z,99786.53
2022-11-09T20:36:44.197Z,99787.44
2022-11-09T20:39:35.762Z,99789.75
2022-11-09T20:42:24.543Z,99790.91
2022-11-09T20:45:15.886Z,99792.91
2022-11-09T20:48:24.619Z,99779.31
2022-11-09T20:51:18.471Z,99785.59
2022-11-09T20:54:08.070Z,99792.31
2022-11-09T20:57:05.134Z,99790.22
2022-11-09T21:00:00.997Z,99793.94
2022-11-09T21:02:50.476Z,99787.56
2022-11-09T21:05:38.587Z,99798.25
2022-11-09T21:08:31.454Z,99798.97
2022-11-09T21:11:18.968Z,99795.22
2022-11-09T21:14:11.872Z,99794.78
2022-11-09T21:17:14.905Z,99798.47
2022-11-09T21:20:08.670Z,99809.69
2022-11-09T21:23:15.821Z,99799.50
2022-11-09T21:26:22.317Z,99797.31
2022-11-09T21:29:31.988Z,99789.13
2022-11-09T21:32:20.517Z,99782.78
2022-11-09T21:35:09.921Z,99791.53
2022-11-09T21:38:02.199Z,99785.75
2022-11-09T21:40:50.946Z,99788.09
2022-11-09T21:43:40.139Z,99786.22
2022-11-09T21:46:28.801Z,99789.72
2022-11-09T21:49:16.584Z,99798.41
2022-11-09T21:52:04.688Z,99798.28
2022-11-09T21:54:53.133Z,99793.41
2022-11-09T21:57:40.695Z,99788.75
2022-11-09T22:00:27.705Z,99792.25
2022-11-09T22:03:15.740Z,99813.31
2022-11-09T22:06:05.565Z,99811.56
2022-11-09T22:08:53.965Z,99807.84
2022-11-09T22:12:00.974Z,99821.75
2022-11-09T22:15:21.007Z,99819.28
2022-11-09T22:18:07.482Z,99816.75
2022-11-09T22:20:57.207Z,99811.94
2022-11-09T22:23:44.831Z,99813.38
2022-11-09T22:26:33.522Z,99820.16
2022-11-09T22:29:21.247Z,99830.06
2022-11-09T22:32:09.050Z,99830.78
2022-11-09T22:35:01.141Z,99826.78
2022-11-09T22:37:49.996Z,99830.78
2022-11-09T22:40:37.780Z,99832.66
2022-11-09T22:43:24.741Z,99828.47
2022-11-09T22:46:13.857Z,99832.88
2022-11-09T22:49:05.432Z,99837.47
2022-11-09T22:51:53.442Z,99843.47
2022-11-09T22:54:43.219Z,99849.66
2022-11-09T22:57:33.366Z,99846.75
2022-11-09T23:00:20.750Z,99851.16
2022-11-09T23:03:08.351Z,99844.88
2022-11-09T23:06:05.056Z,99853.44
2022-11-09T23:08:52.659Z,99855.38
2022-11-09T23:11:41.182Z,99867.78
2022-11-09T23:14:42.507Z,99861.19
2022-11-09T23:17:46.637Z,99860.31
2022-11-09T23:20:35.924Z,99859.94
2022-11-09T23:23:22.877Z,99857.63
2022-11-09T23:26:13.009Z,99864.66
2022-11-09T23:29:04.782Z,99864.91
2022-11-09T23:31:52.936Z,99870.94
2022-11-09T23:34:39.604Z,99875.78
2022-11-09T23:37:27.494Z,99877.22
2022-11-09T23:40:16.157Z,99878.19
2022-11-09T23:43:03.400Z,99877.94
2022-11-09T23:45:53.091Z,99885.69
2022-11-09T23:48:41.587Z,99877.47
2022-11-09T23:51:28.202Z,99880.22
2022-11-09T23:54:14.785Z,99885.19
2022-11-09T23:57:05.097Z,99882.53
2022-11-09T23:59:51.600Z,99886.78
